createdAt,value
2018-06-15T00:00:57.218Z,16.67
2018-06-15T00:03:39.518Z,16.71
2018-06-15T00:06:06.410Z,16.91
2018-06-15T00:08:34.310Z,16.89
2018-06-15T00:11:07.206Z,16.89
2018-06-15T00:13:34.969Z,16.72
2018-06-15T00:16:02.796Z,16.80
2018-06-15T00:18:30.334Z,16.63
2018-06-15T00:21:05.098Z,16.59
2018-06-15T00:23:38.386Z,16.50
2018-06-15T00:26:05.322Z,16.67
2018-06-15T00:28:33.291Z,16.55
2018-06-15T00:31:03.853Z,16.50
2018-06-15T00:33:30.817Z,16.42
2018-06-15T00:35:57.757Z,16.39
2018-06-15T00:38:24.730Z,16.46
2018-06-15T00:40:51.670Z,16.43
2018-06-15T00:43:20.378Z,16.53
2018-06-15T00:45:53.510Z,16.50
2018-06-15T00:48:21.382Z,16.51
2018-06-15T00:50:49.330Z,16.48
2018-06-15T00:53:16.794Z,16.35
2018-06-15T00:55:43.720Z,16.40
2018-06-15T00:58:10.603Z,16.39
2018-06-15T01:00:37.452Z,16.54
2018-06-15T01:03:05.359Z,16.66
2018-06-15T01:05:32.327Z,16.52
2018-06-15T01:08:02.264Z,16.41
2018-06-15T01:10:32.251Z,16.28
2018-06-15T01:13:06.371Z,16.27
2018-06-15T01:15:34.358Z,16.20
2018-06-15T01:18:02.076Z,16.17
2018-06-15T01:20:30.848Z,16.24
2018-06-15T01:22:57.854Z,16.39
2018-06-15T01:25:24.769Z,16.57
2018-06-15T01:27:51.746Z,16.49
2018-06-15T01:30:18.594Z,16.58
2018-06-15T01:32:45.498Z,16.52
2018-06-15T01:35:12.511Z,16.59
2018-06-15T01:37:40.365Z,16.81
2018-06-15T01:40:08.982Z,16.76
2018-06-15T01:42:39.818Z,16.75
2018-06-15T01:45:06.795Z,16.77
2018-06-15T01:47:33.769Z,16.79
2018-06-15T01:50:03.647Z,16.62
2018-06-15T01:52:31.332Z,16.65
2018-06-15T01:54:59.313Z,16.60
2018-06-15T01:57:26.901Z,16.48
2018-06-15T01:59:56.174Z,16.17
2018-06-15T02:02:25.842Z,16.62
2018-06-15T02:04:52.747Z,16.93
2018-06-15T02:07:21.363Z,16.46
2018-06-15T02:09:48.807Z,16.36
2018-06-15T02:12:15.686Z,16.23
2018-06-15T02:14:45.594Z,16.06
2018-06-15T02:17:18.720Z,15.91
2018-06-15T02:19:46.391Z,15.89
2018-06-15T02:22:13.347Z,15.72
2018-06-15T02:24:42.874Z,15.67
2018-06-15T02:27:09.835Z,15.62
2018-06-15T02:29:36.830Z,15.78
2018-06-15T02:32:03.743Z,15.81
2018-06-15T02:34:32.375Z,15.74
2018-06-15T02:37:00.961Z,15.55
2018-06-15T02:39:28.915Z,16.03
2018-06-15T02:41:56.374Z,15.49
2018-06-15T02:44:24.879Z,15.44
2018-06-15T02:46:51.815Z,15.58
2018-06-15T02:49:22.939Z,15.68
2018-06-15T02:51:50.856Z,15.81
2018-06-15T02:54:17.731Z,15.75
2018-06-15T02:56:44.723Z,15.66
2018-06-15T02:59:15.630Z,15.57
2018-06-15T03:01:42.574Z,15.67
2018-06-15T03:04:10.571Z,15.64
2018-06-15T03:06:39.474Z,15.58
2018-06-15T03:09:20.160Z,15.41
2018-06-15T03:11:47.930Z,15.34
2018-06-15T03:14:14.875Z,15.55
2018-06-15T03:16:42.860Z,15.57
2018-06-15T03:19:09.822Z,15.55
2018-06-15T03:21:36.751Z,15.60
2018-06-15T03:24:03.674Z,15.80
2018-06-15T03:26:32.434Z,15.77
2018-06-15T03:29:05.443Z,15.92
2018-06-15T03:31:32.388Z,15.79
2018-06-15T03:33:59.354Z,15.62
2018-06-15T03:36:26.455Z,15.69
2018-06-15T03:38:53.333Z,15.64
2018-06-15T03:41:21.362Z,15.55
2018-06-15T03:43:51.277Z,15.81
2018-06-15T03:46:20.831Z,15.78
2018-06-15T03:48:47.782Z,15.80
2018-06-15T03:51:15.395Z,15.82
2018-06-15T03:53:42.854Z,16.04
2018-06-15T03:56:16.115Z,15.81
2018-06-15T03:58:43.829Z,16.01
2018-06-15T04:01:10.702Z,16.31
2018-06-15T04:03:40.446Z,16.40
2018-06-15T04:06:07.894Z,16.59
2018-06-15T04:08:38.466Z,16.80
2018-06-15T04:11:05.931Z,17.02
2018-06-15T04:13:39.043Z,17.21
2018-06-15T04:16:06.033Z,17.29
2018-06-15T04:18:32.934Z,17.45
2018-06-15T04:20:59.944Z,17.35
2018-06-15T04:23:28.504Z,17.44
2018-06-15T04:25:58.447Z,17.61
2018-06-15T04:28:25.870Z,17.73
2018-06-15T04:30:58.826Z,17.84
2018-06-15T04:33:27.491Z,18.00
2018-06-15T04:35:55.475Z,18.11
2018-06-15T04:38:22.894Z,18.29
2018-06-15T04:40:49.792Z,18.30
2018-06-15T04:43:17.446Z,18.53
2018-06-15T04:45:44.427Z,18.55
2018-06-15T04:48:11.391Z,18.61
2018-06-15T04:50:39.355Z,18.49
2018-06-15T04:53:09.944Z,18.43
2018-06-15T04:55:38.363Z,18.53
2018-06-15T04:58:05.347Z,18.71
2018-06-15T05:00:33.334Z,18.94
2018-06-15T05:03:00.960Z,19.19
2018-06-15T05:05:29.901Z,19.17
2018-06-15T05:07:59.855Z,19.65
2018-06-15T05:10:29.770Z,19.75
2018-06-15T05:12:56.731Z,19.77
2018-06-15T05:15:24.662Z,19.83
2018-06-15T05:17:52.478Z,19.59
2018-06-15T05:20:20.366Z,19.67
2018-06-15T05:22:47.309Z,19.50
2018-06-15T05:25:14.238Z,19.59
2018-06-15T05:27:41.921Z,19.45
2018-06-15T05:30:09.929Z,19.58
2018-06-15T05:32:41.798Z,19.36
2018-06-15T05:35:13.799Z,19.53
2018-06-15T05:37:43.707Z,19.61
2018-06-15T05:40:13.986Z,19.60
2018-06-15T05:42:40.983Z,19.37
2018-06-15T05:45:09.513Z,19.47
2018-06-15T05:47:37.995Z,19.57
2018-06-15T05:50:11.075Z,20.09
2018-06-15T05:52:38.965Z,20.62
2018-06-15T05:55:07.478Z,20.81
2018-06-15T05:57:37.418Z,21.43
2018-06-15T06:00:05.983Z,21.32
2018-06-15T06:02:37.483Z,21.55
2018-06-15T06:05:12.918Z,21.63
2018-06-15T06:07:41.503Z,21.20
2018-06-15T06:10:09.941Z,21.45
2018-06-15T06:12:39.895Z,21.52
2018-06-15T06:15:09.858Z,21.60
2018-06-15T06:17:47.129Z,20.91
2018-06-15T06:20:15.963Z,20.99
2018-06-15T06:22:42.930Z,21.16
2018-06-15T06:25:12.857Z,21.46
2018-06-15T06:27:43.482Z,21.82
2018-06-15T06:30:10.948Z,22.01
2018-06-15T06:32:37.943Z,21.94
2018-06-15T06:35:06.931Z,22.25
2018-06-15T06:37:37.279Z,22.30
2018-06-15T06:40:04.187Z,22.37
2018-06-15T06:42:31.989Z,22.69
2018-06-15T06:45:00.451Z,23.02
2018-06-15T06:47:28.042Z,23.75
2018-06-15T06:49:57.078Z,23.49
2018-06-15T06:52:25.047Z,23.21
2018-06-15T06:54:54.939Z,24.16
2018-06-15T06:57:24.891Z,24.80
2018-06-15T06:59:52.481Z,24.14
2018-06-15T07:02:19.386Z,24.74
2018-06-15T07:04:46.251Z,24.94
2018-06-15T07:07:13.202Z,24.87
2018-06-15T07:09:40.102Z,23.84
2018-06-15T07:12:07.971Z,24.31
2018-06-15T07:14:36.573Z,24.45
2018-06-15T07:17:04.198Z,24.64
2018-06-15T07:19:35.802Z,24.84
2018-06-15T07:22:03.749Z,24.81
2018-06-15T07:24:32.450Z,24.31
2018-06-15T07:27:01.155Z,23.45
2018-06-15T07:29:29.039Z,23.92
2018-06-15T07:31:56.546Z,24.47
2018-06-15T07:34:23.999Z,24.57
2018-06-15T07:36:51.586Z,24.56
2018-06-15T07:39:20.074Z,24.25
2018-06-15T07:41:47.049Z,24.29
2018-06-15T07:44:13.995Z,24.56
2018-06-15T07:46:40.977Z,23.97
2018-06-15T07:49:07.862Z,24.23
2018-06-15T07:51:35.586Z,24.16
2018-06-15T07:54:04.570Z,24.09
2018-06-15T07:56:31.502Z,23.93
2018-06-15T07:58:58.486Z,23.95
2018-06-15T08:01:26.487Z,24.05
2018-06-15T08:04:02.306Z,23.97
2018-06-15T08:06:29.455Z,23.63
2018-06-15T08:08:56.290Z,23.30
2018-06-15T08:11:30.539Z,23.87
2018-06-15T08:13:58.457Z,23.77
2018-06-15T08:16:25.415Z,23.59
2018-06-15T08:18:52.622Z,23.24
2018-06-15T08:21:19.550Z,23.01
2018-06-15T08:23:46.910Z,23.46
2018-06-15T08:26:13.904Z,23.51
2018-06-15T08:28:40.829Z,23.74
2018-06-15T08:31:08.626Z,24.15
2018-06-15T08:33:35.559Z,24.09
2018-06-15T08:36:03.449Z,23.77
2018-06-15T08:38:30.368Z,24.69
2018-06-15T08:40:57.380Z,24.91
2018-06-15T08:43:24.986Z,24.97
2018-06-15T08:45:52.486Z,24.10
2018-06-15T08:48:20.074Z,24.33
2018-06-15T08:50:47.023Z,24.75
2018-06-15T08:53:13.965Z,25.19
2018-06-15T08:55:42.998Z,25.10
2018-06-15T08:58:12.620Z,25.10
2018-06-15T09:00:39.575Z,25.52
2018-06-15T09:03:08.578Z,25.72
2018-06-15T09:05:38.470Z,25.97
2018-06-15T09:08:06.419Z,25.44
2018-06-15T09:10:34.370Z,24.87
2018-06-15T09:13:04.377Z,24.77
2018-06-15T09:15:31.358Z,25.24
2018-06-15T09:18:03.075Z,25.46
2018-06-15T09:20:29.974Z,26.02
2018-06-15T09:22:57.686Z,25.92
2018-06-15T09:25:24.563Z,25.49
2018-06-15T09:27:51.468Z,25.79
2018-06-15T09:30:19.146Z,25.96
2018-06-15T09:32:46.115Z,25.42
2018-06-15T09:35:14.086Z,25.29
2018-06-15T09:37:41.149Z,26.06
2018-06-15T09:40:08.223Z,25.79
2018-06-15T09:42:37.121Z,26.14
2018-06-15T09:45:04.113Z,27.13
2018-06-15T09:47:31.198Z,27.35
2018-06-15T09:49:59.114Z,27.06
2018-06-15T09:52:26.063Z,26.82
2018-06-15T09:54:54.598Z,26.45
2018-06-15T09:57:26.091Z,26.99
2018-06-15T09:59:54.587Z,26.47
2018-06-15T10:02:21.606Z,27.70
2018-06-15T10:04:50.153Z,28.91
2018-06-15T10:07:17.658Z,29.31
2018-06-15T10:09:44.569Z,28.64
2018-06-15T10:12:11.551Z,27.20
2018-06-15T10:14:41.134Z,26.79
2018-06-15T10:17:08.642Z,26.41
2018-06-15T10:19:35.606Z,26.17
2018-06-15T10:22:03.345Z,26.07
2018-06-15T10:24:30.298Z,26.88
2018-06-15T10:27:02.618Z,25.94
2018-06-15T10:29:32.371Z,25.11
2018-06-15T10:31:59.263Z,25.18
2018-06-15T10:34:27.178Z,25.82
2018-06-15T10:36:54.134Z,26.69
2018-06-15T10:39:21.125Z,27.20
2018-06-15T10:41:48.238Z,26.66
2018-06-15T10:44:15.202Z,26.98
2018-06-15T10:46:42.158Z,26.80
2018-06-15T10:49:10.141Z,26.02
2018-06-15T10:51:37.610Z,25.96
2018-06-15T10:54:04.558Z,26.77
2018-06-15T10:56:35.114Z,26.75
2018-06-15T10:59:04.775Z,27.55
2018-06-15T11:01:31.710Z,27.78
2018-06-15T11:03:58.681Z,27.44
2018-06-15T11:06:30.119Z,27.12
2018-06-15T11:08:57.724Z,27.17
2018-06-15T11:11:24.634Z,27.51
2018-06-15T11:13:51.584Z,27.76
2018-06-15T11:16:18.463Z,27.96
2018-06-15T11:18:45.414Z,27.28
2018-06-15T11:21:13.226Z,27.53
2018-06-15T11:23:40.658Z,27.00
2018-06-15T11:26:08.134Z,26.91
2018-06-15T11:28:36.147Z,27.06
2018-06-15T11:31:03.669Z,27.18
2018-06-15T11:33:32.162Z,27.71
2018-06-15T11:35:59.220Z,27.61
2018-06-15T11:38:26.710Z,27.26
2018-06-15T11:40:54.205Z,27.87
2018-06-15T11:43:22.662Z,28.05
2018-06-15T11:45:49.639Z,29.35
2018-06-15T11:48:18.178Z,29.13
2018-06-15T11:50:46.231Z,28.78
2018-06-15T11:53:13.650Z,29.18
2018-06-15T11:55:40.614Z,29.18
2018-06-15T11:58:07.567Z,28.68
2018-06-15T12:00:34.505Z,27.73
2018-06-15T12:03:01.403Z,27.95
2018-06-15T12:05:29.170Z,27.93
2018-06-15T12:07:56.188Z,28.35
2018-06-15T12:10:23.085Z,28.26
2018-06-15T12:12:50.022Z,28.35
2018-06-15T12:15:17.006Z,28.83
2018-06-15T12:17:43.938Z,27.46
2018-06-15T12:20:11.029Z,26.28
2018-06-15T12:22:38.398Z,26.22
2018-06-15T12:25:06.913Z,27.04
2018-06-15T12:27:35.598Z,26.31
2018-06-15T12:30:02.707Z,26.92
2018-06-15T12:32:29.606Z,27.02
2018-06-15T12:34:56.554Z,27.16
2018-06-15T12:37:23.559Z,26.83
2018-06-15T12:39:50.501Z,27.33
2018-06-15T12:42:17.466Z,26.45
2018-06-15T12:44:44.436Z,26.42
2018-06-15T12:47:11.330Z,26.91
2018-06-15T12:49:38.310Z,27.06
2018-06-15T12:52:05.385Z,28.19
2018-06-15T12:54:33.374Z,28.28
2018-06-15T12:57:00.382Z,28.04
2018-06-15T12:59:27.249Z,28.50
2018-06-15T13:01:54.175Z,27.70
2018-06-15T13:04:21.162Z,28.44
2018-06-15T13:06:48.160Z,28.37
2018-06-15T13:09:15.723Z,27.71
2018-06-15T13:11:43.248Z,27.39
2018-06-15T13:14:10.199Z,28.09
2018-06-15T13:16:37.207Z,27.27
2018-06-15T13:19:05.768Z,26.90
2018-06-15T13:21:33.823Z,27.00
2018-06-15T13:24:00.707Z,26.50
2018-06-15T13:26:29.235Z,27.00
2018-06-15T13:28:56.160Z,26.83
2018-06-15T13:31:24.154Z,27.29
2018-06-15T13:33:51.102Z,27.95
2018-06-15T13:36:18.043Z,28.32
2018-06-15T13:38:45.853Z,29.07
2018-06-15T13:41:17.139Z,29.04
2018-06-15T13:43:44.132Z,29.14
2018-06-15T13:46:14.100Z,28.51
2018-06-15T13:48:41.123Z,28.36
2018-06-15T13:51:09.738Z,28.05
2018-06-15T13:53:38.764Z,28.11
2018-06-15T13:56:05.730Z,28.10
2018-06-15T13:58:32.682Z,28.97
2018-06-15T14:01:00.248Z,29.62
2018-06-15T14:03:28.030Z,28.65
2018-06-15T14:05:55.061Z,28.56
2018-06-15T14:08:26.735Z,29.45
2018-06-15T14:10:54.351Z,30.67
2018-06-15T14:13:22.283Z,31.65
2018-06-15T14:15:49.153Z,31.79
2018-06-15T14:18:16.123Z,31.07
2018-06-15T14:20:43.032Z,29.15
2018-06-15T14:23:14.019Z,30.04
2018-06-15T14:25:40.978Z,30.75
2018-06-15T14:28:07.954Z,29.64
2018-06-15T14:30:36.987Z,28.94
2018-06-15T14:33:05.771Z,29.36
2018-06-15T14:35:32.690Z,29.44
2018-06-15T14:37:59.652Z,29.63
2018-06-15T14:40:28.672Z,28.87
2018-06-15T14:42:57.371Z,27.69
2018-06-15T14:45:25.337Z,27.75
2018-06-15T14:47:52.432Z,28.50
2018-06-15T14:50:19.359Z,27.32
2018-06-15T14:52:47.198Z,26.91
2018-06-15T14:55:14.786Z,26.49
2018-06-15T14:57:41.777Z,26.10
2018-06-15T15:00:09.229Z,25.74
2018-06-15T15:02:36.243Z,25.56
2018-06-15T15:05:03.146Z,25.62
2018-06-15T15:07:30.152Z,26.66
2018-06-15T15:09:57.083Z,27.02
2018-06-15T15:12:24.877Z,26.69
2018-06-15T15:14:51.914Z,26.42
2018-06-15T15:17:19.842Z,26.25
2018-06-15T15:19:49.664Z,26.29
2018-06-15T15:22:17.569Z,26.72
2018-06-15T15:24:46.302Z,27.03
2018-06-15T15:27:13.266Z,26.68
2018-06-15T15:29:40.229Z,26.93
2018-06-15T15:32:07.195Z,26.64
2018-06-15T15:34:34.843Z,26.78
2018-06-15T15:37:01.832Z,26.42
2018-06-15T15:39:29.730Z,26.64
2018-06-15T15:41:58.477Z,26.68
2018-06-15T15:44:26.543Z,26.45
2018-06-15T15:46:53.535Z,25.93
2018-06-15T15:49:20.471Z,26.20
2018-06-15T15:51:48.554Z,26.10
2018-06-15T15:54:15.528Z,25.73
2018-06-15T15:56:43.302Z,25.93
2018-06-15T15:59:10.837Z,25.73
2018-06-15T16:01:37.830Z,25.53
2018-06-15T16:04:06.374Z,25.58
2018-06-15T16:06:33.874Z,25.71
2018-06-15T16:09:00.859Z,25.79
2018-06-15T16:11:27.815Z,25.64
2018-06-15T16:13:55.386Z,25.75
2018-06-15T16:16:22.439Z,25.71
2018-06-15T16:18:49.393Z,25.84
2018-06-15T16:21:16.865Z,26.45
2018-06-15T16:23:44.334Z,25.82
2018-06-15T16:26:11.898Z,26.06
2018-06-15T16:28:38.910Z,25.78
2018-06-15T16:31:06.279Z,25.70
2018-06-15T16:33:33.906Z,25.54
2018-06-15T16:36:03.822Z,25.65
2018-06-15T16:38:30.779Z,25.28
2018-06-15T16:41:00.706Z,25.86
2018-06-15T16:43:28.428Z,24.93
2018-06-15T16:45:55.347Z,24.13
2018-06-15T16:48:24.398Z,24.07
2018-06-15T16:50:51.311Z,23.57
2018-06-15T16:53:18.866Z,23.51
2018-06-15T16:55:47.368Z,23.36
2018-06-15T16:58:14.331Z,23.18
2018-06-15T17:00:41.334Z,23.22
2018-06-15T17:03:08.286Z,23.37
2018-06-15T17:05:38.903Z,23.43
2018-06-15T17:08:09.839Z,23.33
2018-06-15T17:10:39.773Z,23.44
2018-06-15T17:13:07.746Z,23.35
2018-06-15T17:15:37.667Z,23.30
2018-06-15T17:18:04.775Z,23.28
2018-06-15T17:20:31.663Z,23.31
2018-06-15T17:22:58.642Z,23.30
2018-06-15T17:25:28.534Z,23.27
2018-06-15T17:27:57.402Z,23.34
2018-06-15T17:30:35.538Z,23.35
2018-06-15T17:33:05.510Z,23.32
2018-06-15T17:35:33.398Z,23.13
2018-06-15T17:38:00.872Z,23.08
2018-06-15T17:40:28.527Z,23.01
2018-06-15T17:42:55.543Z,22.98
2018-06-15T17:45:22.391Z,23.04
2018-06-15T17:47:53.814Z,22.97
2018-06-15T17:50:21.810Z,22.94
2018-06-15T17:52:48.750Z,22.95
2018-06-15T17:55:16.426Z,22.87
2018-06-15T17:57:43.372Z,22.73
2018-06-15T18:00:10.868Z,22.74
2018-06-15T18:02:39.987Z,22.61
2018-06-15T18:05:07.962Z,22.51
2018-06-15T18:07:36.422Z,22.51
2018-06-15T18:10:04.432Z,22.50
2018-06-15T18:12:34.957Z,22.37
2018-06-15T18:15:05.442Z,22.31
2018-06-15T18:17:32.918Z,22.12
2018-06-15T18:19:59.843Z,21.96
2018-06-15T18:22:26.804Z,21.96
2018-06-15T18:24:54.482Z,21.84
2018-06-15T18:27:21.414Z,21.86
2018-06-15T18:29:48.363Z,21.79
2018-06-15T18:32:15.955Z,21.74
2018-06-15T18:34:42.947Z,21.70
2018-06-15T18:37:11.928Z,21.62
2018-06-15T18:39:40.406Z,21.61
2018-06-15T18:42:07.374Z,21.68
2018-06-15T18:44:39.964Z,21.61
2018-06-15T18:47:08.461Z,21.51
2018-06-15T18:49:35.914Z,21.51
2018-06-15T18:52:02.791Z,21.48
2018-06-15T18:54:31.500Z,21.36
2018-06-15T18:57:01.398Z,21.13
2018-06-15T18:59:28.974Z,20.90
2018-06-15T19:01:55.946Z,20.94
2018-06-15T19:04:22.910Z,20.90
2018-06-15T19:06:51.479Z,20.81
2018-06-15T19:09:19.464Z,20.84
2018-06-15T19:11:46.939Z,20.83
2018-06-15T19:14:13.874Z,20.93
2018-06-15T19:16:40.841Z,20.89
2018-06-15T19:19:08.444Z,20.91
2018-06-15T19:21:37.938Z,20.94
2018-06-15T19:24:05.071Z,20.92
2018-06-15T19:26:35.123Z,20.80
2018-06-15T19:29:02.090Z,20.72
2018-06-15T19:31:30.483Z,20.63
2018-06-15T19:33:57.953Z,20.47
2018-06-15T19:36:25.390Z,20.26
2018-06-15T19:38:56.106Z,20.21
2018-06-15T19:41:24.982Z,20.14
2018-06-15T19:43:54.862Z,20.07
2018-06-15T19:46:27.782Z,20.05
2018-06-15T19:48:56.462Z,20.16
2018-06-15T19:51:23.958Z,20.04
2018-06-15T19:53:50.886Z,20.01
2018-06-15T19:56:23.866Z,20.01
2018-06-15T19:58:51.500Z,20.15
2018-06-15T20:01:18.433Z,19.92
2018-06-15T20:03:48.069Z,19.89
2018-06-15T20:06:17.063Z,19.90
2018-06-15T20:08:45.043Z,20.31
2018-06-15T20:11:15.506Z,20.07
2018-06-15T20:13:44.507Z,19.90
2018-06-15T20:16:11.481Z,19.67
2018-06-15T20:18:40.106Z,19.52
2018-06-15T20:21:07.024Z,19.35
2018-06-15T20:23:34.058Z,19.25
2018-06-15T20:26:02.979Z,19.32
2018-06-15T20:28:34.249Z,19.20
2018-06-15T20:31:02.041Z,19.07
2018-06-15T20:33:28.947Z,19.16
2018-06-15T20:35:59.774Z,18.88
2018-06-15T20:38:28.533Z,18.68
2018-06-15T20:40:56.217Z,18.50
2018-06-15T20:43:23.966Z,18.39
2018-06-15T20:45:50.934Z,18.34
2018-06-15T20:48:18.497Z,18.19
2018-06-15T20:50:45.942Z,18.61
2018-06-15T20:53:19.067Z,18.09
2018-06-15T20:55:47.561Z,17.93
2018-06-15T20:58:14.522Z,17.78
2018-06-15T21:00:45.519Z,17.77
2018-06-15T21:03:13.502Z,17.73
2018-06-15T21:05:41.983Z,17.79
2018-06-15T21:08:22.314Z,17.82
2018-06-15T21:10:52.243Z,17.92
2018-06-15T21:13:21.142Z,17.87
2018-06-15T21:15:48.084Z,17.94
2018-06-15T21:18:19.966Z,17.99
2018-06-15T21:20:48.574Z,17.96
2018-06-15T21:23:17.215Z,17.96
2018-06-15T21:25:44.130Z,17.89
2018-06-15T21:28:12.011Z,17.97
2018-06-15T21:30:45.034Z,17.85
2018-06-15T21:33:14.507Z,17.68
2018-06-15T21:35:41.994Z,17.70
2018-06-15T21:38:14.981Z,17.86
2018-06-15T21:40:46.526Z,17.88
2018-06-15T21:43:14.074Z,17.80
2018-06-15T21:46:07.459Z,17.67
2018-06-15T21:48:35.081Z,17.50
2018-06-15T21:51:05.010Z,17.19
2018-06-15T21:53:32.466Z,17.19
2018-06-15T21:56:05.583Z,17.11
2018-06-15T21:58:32.429Z,17.13
2018-06-15T22:01:00.447Z,17.12
2018-06-15T22:03:30.372Z,17.17
2018-06-15T22:05:57.289Z,17.20
2018-06-15T22:08:25.112Z,17.23
2018-06-15T22:10:56.550Z,17.13
2018-06-15T22:13:23.487Z,17.11
2018-06-15T22:15:50.458Z,17.10
2018-06-15T22:18:20.490Z,17.06
2018-06-15T22:20:47.471Z,16.99
2018-06-15T22:23:24.186Z,16.95
2018-06-15T22:25:52.108Z,17.12
2018-06-15T22:28:19.082Z,16.98
2018-06-15T22:30:46.515Z,17.00
2018-06-15T22:33:13.410Z,17.06
2018-06-15T22:35:40.355Z,17.04
2018-06-15T22:38:08.234Z,17.00
2018-06-15T22:40:40.003Z,16.92
2018-06-15T22:43:08.599Z,17.02
2018-06-15T22:45:38.979Z,16.86
2018-06-15T22:48:05.898Z,16.80
2018-06-15T22:50:38.998Z,16.92
2018-06-15T22:53:08.996Z,16.82
2018-06-15T22:55:37.618Z,16.82
2018-06-15T22:58:08.867Z,16.74
2018-06-15T23:00:36.595Z,16.73
2018-06-15T23:03:07.106Z,16.70
2018-06-15T23:05:34.015Z,16.60
2018-06-15T23:08:01.683Z,16.42
2018-06-15T23:10:28.586Z,16.55
2018-06-15T23:13:02.403Z,16.59
2018-06-15T23:15:32.298Z,16.33
2018-06-15T23:18:02.222Z,16.31
2018-06-15T23:20:30.178Z,16.21
2018-06-15T23:22:59.150Z,16.22
2018-06-15T23:25:30.098Z,16.16
2018-06-15T23:27:57.551Z,16.09
2018-06-15T23:30:26.573Z,16.08
2018-06-15T23:33:04.883Z,16.05
2018-06-15T23:35:38.389Z,16.04
2018-06-15T23:38:05.306Z,16.03
2018-06-15T23:40:34.292Z,16.00
2018-06-15T23:43:05.098Z,16.22
2018-06-15T23:45:35.293Z,16.11
2018-06-15T23:48:07.050Z,15.87
2018-06-15T23:50:33.934Z,15.74
2018-06-15T23:53:02.649Z,15.65
2018-06-15T23:55:29.594Z,15.64
2018-06-15T23:58:00.570Z,15.56
